createdAt,value
2023-07-18T00:02:09.138Z,4.05
2023-07-18T00:04:37.428Z,3.53
2023-07-18T00:07:05.493Z,1.77
2023-07-18T00:09:32.878Z,2.95
2023-07-18T00:12:00.662Z,3.78
2023-07-18T00:14:30.844Z,2.42
2023-07-18T00:16:59.389Z,2.25
2023-07-18T00:19:26.061Z,1.30
2023-07-18T00:21:54.467Z,1.92
2023-07-18T00:24:21.238Z,2.20
2023-07-18T00:26:47.942Z,4.63
2023-07-18T00:29:14.705Z,2.25
2023-07-18T00:31:42.340Z,3.58
2023-07-18T00:34:09.124Z,2.35
2023-07-18T00:36:35.814Z,3.10
2023-07-18T00:39:04.806Z,2.45
2023-07-18T00:41:31.710Z,3.45
2023-07-18T00:43:58.484Z,2.88
2023-07-18T00:46:25.728Z,2.50
2023-07-18T00:48:52.885Z,3.28
2023-07-18T00:51:20.291Z,2.95
2023-07-18T00:53:47.332Z,3.42
2023-07-18T00:56:15.437Z,2.40
2023-07-18T00:58:42.324Z,2.17
2023-07-18T01:01:09.274Z,2.13
2023-07-18T01:03:38.895Z,2.70
2023-07-18T01:06:06.931Z,2.58
2023-07-18T01:08:33.977Z,3.47
2023-07-18T01:11:00.855Z,3.88
2023-07-18T01:13:28.889Z,2.25
2023-07-18T01:15:55.689Z,3.33
2023-07-18T01:18:22.395Z,2.92
2023-07-18T01:20:50.159Z,2.08
2023-07-18T01:23:18.362Z,3.47
2023-07-18T01:25:45.316Z,1.73
2023-07-18T01:28:12.226Z,3.22
2023-07-18T01:30:39.273Z,3.88
2023-07-18T01:33:06.183Z,1.92
2023-07-18T01:35:33.463Z,1.88
2023-07-18T01:38:01.855Z,2.47
2023-07-18T01:40:29.992Z,2.35
2023-07-18T01:42:58.667Z,3.20
2023-07-18T01:45:29.057Z,2.30
2023-07-18T01:47:57.683Z,3.95
2023-07-18T01:50:25.007Z,3.25
2023-07-18T01:52:51.861Z,2.85
2023-07-18T01:55:18.640Z,3.53
2023-07-18T01:57:48.647Z,2.20
2023-07-18T02:00:23.208Z,3.22
2023-07-18T02:02:52.613Z,3.40
2023-07-18T02:05:22.218Z,2.50
2023-07-18T02:07:49.332Z,2.60
2023-07-18T02:10:17.560Z,3.42
2023-07-18T02:12:46.829Z,2.10
2023-07-18T02:15:16.495Z,2.22
2023-07-18T02:17:44.356Z,3.50
2023-07-18T02:20:13.209Z,1.98
2023-07-18T02:22:41.798Z,1.92
2023-07-18T02:25:10.038Z,3.10
2023-07-18T02:27:40.154Z,2.72
2023-07-18T02:30:10.839Z,1.90
2023-07-18T02:32:37.959Z,2.92
2023-07-18T02:35:05.401Z,1.40
2023-07-18T02:37:32.215Z,3.58
2023-07-18T02:39:58.904Z,3.15
2023-07-18T02:42:25.770Z,3.55
2023-07-18T02:44:52.629Z,2.45
2023-07-18T02:47:20.896Z,3.55
2023-07-18T02:49:47.648Z,3.55
2023-07-18T02:52:14.322Z,2.55
2023-07-18T02:54:41.428Z,2.92
2023-07-18T02:57:08.252Z,3.67
2023-07-18T02:59:35.013Z,2.15
2023-07-18T03:02:02.319Z,2.35
2023-07-18T03:04:32.020Z,2.65
2023-07-18T03:07:01.473Z,3.22
2023-07-18T03:09:28.521Z,3.38
2023-07-18T03:11:55.454Z,2.65
2023-07-18T03:14:22.757Z,2.15
2023-07-18T03:16:50.027Z,2.83
2023-07-18T03:19:16.831Z,2.35
2023-07-18T03:21:45.876Z,3.97
2023-07-18T03:24:12.856Z,1.95
2023-07-18T03:26:43.688Z,2.15
2023-07-18T03:29:10.786Z,3.08
2023-07-18T03:31:37.574Z,2.85
2023-07-18T03:34:06.315Z,3.80
2023-07-18T03:36:33.433Z,2.60
2023-07-18T03:39:01.761Z,3.65
2023-07-18T03:41:28.653Z,3.22
2023-07-18T03:43:56.148Z,3.67
2023-07-18T03:46:23.071Z,2.65
2023-07-18T03:48:49.966Z,4.75
2023-07-18T03:51:17.635Z,2.38
2023-07-18T03:53:45.988Z,2.70
2023-07-18T03:56:14.789Z,2.55
2023-07-18T03:58:41.790Z,2.58
2023-07-18T04:01:09.461Z,3.08
2023-07-18T04:03:36.245Z,1.92
2023-07-18T04:06:03.400Z,2.38
2023-07-18T04:08:33.897Z,1.98
2023-07-18T04:11:01.431Z,3.70
2023-07-18T04:13:29.578Z,2.45
2023-07-18T04:15:57.076Z,2.92
2023-07-18T04:18:23.996Z,3.53
2023-07-18T04:20:59.842Z,1.88
2023-07-18T04:23:26.598Z,2.03
2023-07-18T04:25:58.451Z,3.92
2023-07-18T04:28:26.659Z,2.95
2023-07-18T04:30:55.201Z,2.88
2023-07-18T04:33:22.229Z,2.78
2023-07-18T04:35:49.115Z,2.67
2023-07-18T04:38:16.073Z,2.55
2023-07-18T04:40:43.117Z,2.13
2023-07-18T04:43:10.451Z,1.80
2023-07-18T04:45:42.459Z,2.80
2023-07-18T04:48:11.674Z,3.70
2023-07-18T04:50:38.652Z,3.60
2023-07-18T04:53:06.954Z,3.25
2023-07-18T04:55:35.712Z,2.85
2023-07-18T04:58:03.183Z,2.25
2023-07-18T05:00:30.298Z,4.72
2023-07-18T05:02:57.903Z,4.75
2023-07-18T05:05:26.925Z,7.68
2023-07-18T05:07:54.103Z,3.47
2023-07-18T05:10:21.867Z,3.08
2023-07-18T05:12:48.617Z,2.13
2023-07-18T05:15:15.528Z,3.00
2023-07-18T05:17:42.387Z,3.90
2023-07-18T05:20:13.039Z,4.03
2023-07-18T05:22:43.066Z,4.25
2023-07-18T05:25:11.681Z,4.03
2023-07-18T05:27:40.147Z,4.55
2023-07-18T05:30:11.689Z,3.55
2023-07-18T05:32:40.251Z,3.15
2023-07-18T05:35:08.173Z,4.18
2023-07-18T05:37:35.673Z,3.97
2023-07-18T05:40:04.804Z,3.10
2023-07-18T05:42:32.064Z,3.67
2023-07-18T05:44:59.186Z,4.85
2023-07-18T05:47:26.069Z,3.85
2023-07-18T05:49:52.804Z,3.83
2023-07-18T05:52:19.615Z,3.85
2023-07-18T05:54:46.480Z,3.13
2023-07-18T05:57:17.051Z,4.68
2023-07-18T05:59:43.829Z,4.68
2023-07-18T06:02:10.593Z,3.83
2023-07-18T06:04:38.077Z,5.40
2023-07-18T06:07:05.551Z,4.28
2023-07-18T06:09:32.634Z,4.25
2023-07-18T06:12:00.048Z,3.67
2023-07-18T06:14:29.334Z,4.38
2023-07-18T06:16:56.126Z,3.67
2023-07-18T06:19:23.061Z,3.00
2023-07-18T06:21:49.755Z,3.55
2023-07-18T06:24:19.314Z,3.25
2023-07-18T06:26:51.429Z,3.83
2023-07-18T06:31:47.284Z,4.63
2023-07-18T06:34:14.250Z,3.70
2023-07-18T06:36:40.983Z,4.78
2023-07-18T06:39:08.015Z,4.90
2023-07-18T06:41:35.209Z,3.33
2023-07-18T06:44:02.203Z,2.90
2023-07-18T06:46:29.185Z,5.78
2023-07-18T06:48:57.396Z,3.83
2023-07-18T06:51:24.522Z,3.13
2023-07-18T06:53:53.355Z,4.28
2023-07-18T06:56:20.499Z,3.85
2023-07-18T06:58:47.493Z,5.30
2023-07-18T07:01:15.779Z,3.70
2023-07-18T07:03:42.706Z,3.47
2023-07-18T07:06:12.112Z,4.82
2023-07-18T07:08:38.864Z,3.40
2023-07-18T07:11:07.219Z,4.00
2023-07-18T07:13:35.858Z,3.45
2023-07-18T07:16:02.642Z,3.28
2023-07-18T07:18:29.507Z,4.13
2023-07-18T07:20:56.229Z,4.20
2023-07-18T07:23:25.000Z,6.07
2023-07-18T07:25:52.677Z,3.08
2023-07-18T07:28:20.621Z,5.38
2023-07-18T07:30:47.794Z,3.22
2023-07-18T07:33:14.551Z,4.80
2023-07-18T07:35:41.334Z,3.30
2023-07-18T07:38:11.504Z,3.05
2023-07-18T07:40:39.706Z,3.92
2023-07-18T07:43:06.436Z,2.90
2023-07-18T07:45:33.260Z,3.50
2023-07-18T07:48:00.131Z,5.10
2023-07-18T07:50:28.565Z,3.58
2023-07-18T07:52:55.303Z,4.63
2023-07-18T07:55:22.130Z,3.35
2023-07-18T07:57:50.393Z,2.75
2023-07-18T08:00:18.067Z,4.07
2023-07-18T08:02:50.938Z,2.95
2023-07-18T08:05:19.486Z,2.58
2023-07-18T08:07:46.658Z,2.08
2023-07-18T08:10:14.141Z,2.95
2023-07-18T08:12:41.240Z,3.30
2023-07-18T08:15:10.736Z,3.88
2023-07-18T08:17:37.802Z,3.33
2023-07-18T08:20:07.586Z,3.05
2023-07-18T08:22:35.102Z,2.25
2023-07-18T08:25:02.237Z,2.08
2023-07-18T08:27:28.942Z,2.35
2023-07-18T08:29:56.462Z,1.83
2023-07-18T08:32:29.765Z,4.75
2023-07-18T08:34:56.851Z,1.55
2023-07-18T08:37:23.645Z,1.23
2023-07-18T08:39:50.367Z,4.25
2023-07-18T08:42:20.666Z,3.28
2023-07-18T08:44:50.559Z,1.08
2023-07-18T08:47:18.371Z,0.93
2023-07-18T08:49:48.206Z,1.60
2023-07-18T08:52:16.223Z,2.33
2023-07-18T08:54:43.129Z,1.52
2023-07-18T08:57:10.341Z,1.45
2023-07-18T08:59:39.927Z,1.73
2023-07-18T09:02:06.972Z,0.70
2023-07-18T09:04:34.517Z,1.58
2023-07-18T09:07:03.998Z,0.98
2023-07-18T09:09:31.021Z,1.08
2023-07-18T09:12:03.658Z,1.23
2023-07-18T09:14:33.273Z,1.35
2023-07-18T09:17:01.656Z,0.93
2023-07-18T09:19:40.086Z,0.80
2023-07-18T09:22:12.627Z,1.48
2023-07-18T09:24:40.808Z,1.23
2023-07-18T09:27:09.341Z,1.20
2023-07-18T09:29:36.509Z,1.42
2023-07-18T09:32:03.634Z,1.73
2023-07-18T09:34:30.607Z,1.35
2023-07-18T09:37:00.696Z,2.10
2023-07-18T09:39:30.439Z,1.85
2023-07-18T09:41:57.788Z,1.10
2023-07-18T09:44:33.239Z,2.03
2023-07-18T09:47:01.901Z,0.90
2023-07-18T09:54:31.486Z,0.68
2023-07-18T09:57:03.210Z,0.95
2023-07-18T09:59:30.896Z,1.20
2023-07-18T10:01:58.058Z,0.55
2023-07-18T10:04:26.627Z,0.55
2023-07-18T10:06:56.805Z,0.93
2023-07-18T10:09:24.590Z,0.80
2023-07-18T10:12:09.668Z,1.73
2023-07-18T10:15:01.564Z,0.77
2023-07-18T10:17:40.741Z,1.08
2023-07-18T10:20:13.172Z,0.65
2023-07-18T10:22:50.349Z,1.35
2023-07-18T10:25:21.047Z,1.35
2023-07-18T10:27:51.008Z,0.88
2023-07-18T10:30:19.438Z,1.23
2023-07-18T10:32:54.445Z,1.63
2023-07-18T10:35:26.334Z,0.93
2023-07-18T10:37:54.654Z,1.30
2023-07-18T10:40:37.651Z,0.52
2023-07-18T10:43:09.701Z,1.60
2023-07-18T10:45:38.832Z,2.35
2023-07-18T10:48:13.155Z,0.90
2023-07-18T10:50:43.686Z,0.73
2023-07-18T10:53:16.032Z,0.95
2023-07-18T10:55:47.054Z,1.02
2023-07-18T11:00:56.376Z,2.25
2023-07-18T11:03:24.743Z,0.77
2023-07-18T11:05:52.654Z,1.05
2023-07-18T11:08:27.224Z,0.77
2023-07-18T11:10:56.247Z,0.80
2023-07-18T11:13:29.674Z,0.43
2023-07-18T11:15:58.098Z,0.95
2023-07-18T11:18:25.020Z,0.98
2023-07-18T11:20:54.200Z,0.70
2023-07-18T11:23:21.512Z,1.00
2023-07-18T11:25:48.665Z,1.00
2023-07-18T11:28:16.776Z,0.98
2023-07-18T11:30:46.260Z,1.48
2023-07-18T11:33:14.515Z,1.10
2023-07-18T11:35:45.732Z,1.08
2023-07-18T11:38:15.469Z,1.23
2023-07-18T11:40:42.254Z,0.55
2023-07-18T11:43:17.623Z,1.63
2023-07-18T11:45:47.608Z,2.40
2023-07-18T11:48:20.438Z,0.88
2023-07-18T11:50:47.435Z,1.73
2023-07-18T11:53:25.158Z,0.88
2023-07-18T11:55:51.878Z,1.00
2023-07-18T11:58:18.691Z,1.35
2023-07-18T12:00:48.563Z,1.27
2023-07-18T12:03:15.490Z,0.93
2023-07-18T12:05:45.356Z,1.45
2023-07-18T12:08:13.321Z,0.65
2023-07-18T12:10:40.549Z,0.90
2023-07-18T12:13:07.420Z,0.68
2023-07-18T12:15:37.092Z,1.63
2023-07-18T12:18:06.538Z,1.58
2023-07-18T12:20:34.303Z,3.40
2023-07-18T12:23:01.039Z,0.68
2023-07-18T12:25:32.804Z,0.77
2023-07-18T12:28:05.078Z,1.38
2023-07-18T12:30:32.279Z,1.27
2023-07-18T12:33:00.088Z,2.00
2023-07-18T12:35:28.659Z,1.90
2023-07-18T12:38:01.580Z,1.45
2023-07-18T12:40:29.682Z,1.25
2023-07-18T12:42:57.761Z,0.73
2023-07-18T12:45:25.838Z,1.10
2023-07-18T12:47:52.680Z,0.30
2023-07-18T12:50:19.625Z,1.58
2023-07-18T12:52:47.995Z,1.27
2023-07-18T12:55:15.061Z,0.70
2023-07-18T12:57:42.215Z,1.02
2023-07-18T13:00:11.341Z,1.52
2023-07-18T13:02:38.164Z,1.63
2023-07-18T13:05:05.702Z,1.20
2023-07-18T13:07:34.137Z,0.75
2023-07-18T13:10:02.346Z,0.68
2023-07-18T13:12:31.213Z,1.38
2023-07-18T13:14:58.708Z,1.10
2023-07-18T13:17:25.643Z,0.82
2023-07-18T13:19:54.561Z,0.75
2023-07-18T13:22:21.549Z,0.90
2023-07-18T13:24:48.693Z,0.60
2023-07-18T13:27:16.985Z,1.05
2023-07-18T13:29:47.229Z,1.10
2023-07-18T13:32:13.961Z,1.08
2023-07-18T13:34:40.885Z,0.70
2023-07-18T13:37:07.616Z,1.98
2023-07-18T13:39:34.462Z,1.70
2023-07-18T13:42:01.535Z,3.45
2023-07-18T13:44:29.782Z,0.85
2023-07-18T13:46:56.881Z,3.22
2023-07-18T13:49:23.958Z,3.25
2023-07-18T13:51:50.911Z,1.05
2023-07-18T13:54:17.700Z,0.22
2023-07-18T13:56:45.439Z,0.73
2023-07-18T13:59:13.351Z,0.77
2023-07-18T14:01:42.789Z,0.85
2023-07-18T14:04:09.615Z,0.63
2023-07-18T14:06:36.346Z,1.00
2023-07-18T14:09:03.603Z,1.50
2023-07-18T14:11:30.946Z,1.63
2023-07-18T14:13:59.642Z,0.88
2023-07-18T14:16:26.481Z,0.75
2023-07-18T14:18:58.366Z,1.05
2023-07-18T14:21:25.820Z,0.68
2023-07-18T14:23:52.948Z,1.10
2023-07-18T14:26:20.007Z,1.45
2023-07-18T14:28:46.865Z,0.95
2023-07-18T14:31:14.628Z,1.35
2023-07-18T14:33:55.329Z,2.05
2023-07-18T14:36:29.808Z,2.42
2023-07-18T14:38:56.695Z,0.50
2023-07-18T14:41:23.497Z,1.38
2023-07-18T14:43:50.169Z,0.57
2023-07-18T14:46:16.956Z,0.55
2023-07-18T14:48:43.703Z,0.85
2023-07-18T14:51:10.502Z,0.52
2023-07-18T14:53:39.346Z,0.75
2023-07-18T14:56:07.293Z,0.40
2023-07-18T14:58:34.190Z,1.85
2023-07-18T15:01:01.006Z,1.55
2023-07-18T15:03:27.972Z,1.20
2023-07-18T15:05:54.802Z,2.10
2023-07-18T15:08:21.669Z,0.95
2023-07-18T15:10:49.843Z,1.17
2023-07-18T15:13:16.977Z,0.85
2023-07-18T15:15:44.139Z,1.02
2023-07-18T15:18:11.484Z,1.88
2023-07-18T15:20:38.329Z,1.20
2023-07-18T15:23:05.203Z,0.68
2023-07-18T15:25:32.327Z,0.47
2023-07-18T15:28:00.878Z,1.13
2023-07-18T15:30:28.634Z,1.85
2023-07-18T15:32:55.405Z,1.27
2023-07-18T15:35:23.001Z,0.73
2023-07-18T15:37:49.799Z,0.47
2023-07-18T15:40:16.516Z,0.70
2023-07-18T15:42:43.180Z,0.57
2023-07-18T15:45:11.882Z,0.85
2023-07-18T15:47:39.474Z,1.17
2023-07-18T15:50:07.617Z,2.00
2023-07-18T15:52:34.339Z,2.20
2023-07-18T15:55:01.628Z,2.50
2023-07-18T15:57:29.682Z,1.45
2023-07-18T15:59:56.370Z,0.98
2023-07-18T16:02:24.742Z,0.80
2023-07-18T16:04:51.545Z,2.35
2023-07-18T16:07:18.424Z,1.85
2023-07-18T16:09:49.593Z,2.65
2023-07-18T16:12:16.377Z,2.85
2023-07-18T16:14:43.419Z,2.72
2023-07-18T16:17:11.207Z,1.65
2023-07-18T16:19:39.765Z,2.42
2023-07-18T16:22:06.779Z,1.27
2023-07-18T16:24:33.566Z,3.05
2023-07-18T16:27:02.731Z,1.48
2023-07-18T16:29:29.458Z,0.88
2023-07-18T16:31:59.266Z,1.45
2023-07-18T16:34:26.004Z,0.98
2023-07-18T16:36:56.393Z,0.60
2023-07-18T16:39:23.075Z,1.58
2023-07-18T16:41:49.842Z,0.63
2023-07-18T16:44:18.646Z,0.95
2023-07-18T16:49:14.142Z,0.68
2023-07-18T16:51:41.060Z,1.20
2023-07-18T16:54:09.238Z,0.98
2023-07-18T16:56:36.859Z,2.50
2023-07-18T16:59:03.663Z,1.00
2023-07-18T17:01:32.516Z,1.08
2023-07-18T17:04:00.807Z,1.40
2023-07-18T17:06:27.681Z,1.05
2023-07-18T17:08:54.729Z,1.90
2023-07-18T17:11:23.012Z,1.27
2023-07-18T17:13:52.448Z,1.08
2023-07-18T17:16:20.226Z,2.53
2023-07-18T17:18:47.663Z,1.58
2023-07-18T17:21:14.450Z,1.15
2023-07-18T17:23:41.185Z,2.78
2023-07-18T17:26:10.205Z,1.10
2023-07-18T17:28:38.283Z,0.90
2023-07-18T17:31:05.203Z,1.80
2023-07-18T17:33:31.980Z,0.77
2023-07-18T17:35:58.686Z,1.75
2023-07-18T17:38:25.665Z,1.20
2023-07-18T17:40:52.635Z,0.95
2023-07-18T17:43:19.388Z,1.10
2023-07-18T17:45:47.695Z,2.17
2023-07-18T17:48:14.652Z,1.17
2023-07-18T17:50:41.488Z,0.75
2023-07-18T17:53:08.211Z,0.47
2023-07-18T17:55:35.074Z,1.45
2023-07-18T17:58:01.895Z,1.80
2023-07-18T18:00:30.226Z,2.00
2023-07-18T18:02:58.689Z,1.20
2023-07-18T18:05:36.342Z,1.63
2023-07-18T18:08:06.323Z,1.30
2023-07-18T18:10:33.171Z,0.73
2023-07-18T18:12:59.930Z,1.02
2023-07-18T18:15:28.143Z,1.13
2023-07-18T18:17:55.067Z,1.73
2023-07-18T18:20:23.296Z,1.15
2023-07-18T18:22:50.198Z,1.20
2023-07-18T18:25:17.388Z,2.55
2023-07-18T18:27:45.039Z,1.98
2023-07-18T18:30:13.042Z,1.88
2023-07-18T18:32:39.960Z,1.02
2023-07-18T18:35:09.822Z,1.90
2023-07-18T18:37:39.432Z,1.88
2023-07-18T18:40:07.171Z,1.20
2023-07-18T18:42:34.804Z,1.10
2023-07-18T18:45:01.847Z,0.70
2023-07-18T18:47:28.607Z,0.40
2023-07-18T18:49:57.816Z,1.20
2023-07-18T18:52:26.084Z,2.00
2023-07-18T18:55:08.693Z,0.68
2023-07-18T18:57:40.046Z,2.55
2023-07-18T19:00:09.078Z,0.65
2023-07-18T19:02:36.428Z,2.88
2023-07-18T19:05:05.623Z,1.45
2023-07-18T19:07:34.539Z,1.30
2023-07-18T19:10:03.930Z,1.75
2023-07-18T19:12:30.753Z,2.25
2023-07-18T19:14:58.394Z,2.75
2023-07-18T19:17:25.884Z,2.20
2023-07-18T19:19:53.007Z,3.28
2023-07-18T19:22:20.595Z,3.05
2023-07-18T19:24:51.038Z,4.70
2023-07-18T19:27:19.697Z,3.15
2023-07-18T19:29:46.653Z,3.13
2023-07-18T19:32:13.426Z,2.70
2023-07-18T19:34:42.676Z,2.40
2023-07-18T19:37:09.405Z,3.10
2023-07-18T19:39:37.886Z,2.53
2023-07-18T19:42:05.477Z,2.28
2023-07-18T19:44:33.876Z,2.22
2023-07-18T19:47:02.032Z,3.13
2023-07-18T19:49:32.033Z,1.77
2023-07-18T19:51:59.150Z,3.10
2023-07-18T19:54:26.432Z,1.95
2023-07-18T19:56:54.341Z,1.98
2023-07-18T19:59:21.920Z,2.15
2023-07-18T20:01:52.236Z,2.80
2023-07-18T20:04:19.379Z,2.75
2023-07-18T20:06:46.141Z,2.38
2023-07-18T20:09:12.893Z,1.80
2023-07-18T20:11:39.794Z,1.88
2023-07-18T20:14:06.500Z,1.48
2023-07-18T20:16:33.300Z,1.52
2023-07-18T20:19:03.106Z,1.65
2023-07-18T20:21:30.414Z,2.40
2023-07-18T20:23:58.243Z,1.65
2023-07-18T20:26:25.587Z,2.45
2023-07-18T20:28:53.725Z,2.80
2023-07-18T20:31:20.883Z,2.35
2023-07-18T20:33:48.479Z,1.65
2023-07-18T20:36:16.760Z,2.10
2023-07-18T20:38:47.257Z,2.15
2023-07-18T20:41:14.258Z,1.70
2023-07-18T20:43:41.794Z,0.70
2023-07-18T20:46:12.385Z,2.42
2023-07-18T20:48:39.322Z,2.35
2023-07-18T20:51:07.279Z,3.17
2023-07-18T20:53:35.717Z,1.17
2023-07-18T20:56:02.763Z,0.95
2023-07-18T20:58:29.762Z,2.72
2023-07-18T21:00:56.485Z,2.60
2023-07-18T21:03:25.130Z,2.10
2023-07-18T21:05:52.388Z,1.42
2023-07-18T21:08:19.566Z,1.30
2023-07-18T21:10:49.246Z,0.85
2023-07-18T21:13:16.250Z,1.95
2023-07-18T21:15:43.234Z,2.15
2023-07-18T21:18:10.377Z,1.35
2023-07-18T21:20:38.463Z,3.08
2023-07-18T21:23:05.391Z,1.67
2023-07-18T21:25:32.677Z,0.88
2023-07-18T21:28:00.734Z,3.85
2023-07-18T21:30:27.888Z,2.75
2023-07-18T21:32:54.975Z,1.45
2023-07-18T21:35:25.061Z,1.67
2023-07-18T21:37:52.019Z,1.52
2023-07-18T21:40:19.187Z,1.95
2023-07-18T21:42:49.455Z,1.30
2023-07-18T21:45:17.930Z,2.03
2023-07-18T21:47:45.788Z,1.23
2023-07-18T21:50:12.764Z,2.38
2023-07-18T21:52:39.641Z,1.48
2023-07-18T21:55:07.634Z,1.98
2023-07-18T21:57:34.305Z,2.70
2023-07-18T22:00:01.163Z,1.77
2023-07-18T22:02:37.008Z,1.85
2023-07-18T22:05:04.551Z,3.42
2023-07-18T22:07:31.788Z,1.73
2023-07-18T22:09:59.382Z,2.63
2023-07-18T22:12:26.104Z,1.27
2023-07-18T22:14:57.128Z,1.42
2023-07-18T22:19:51.895Z,2.10
2023-07-18T22:22:18.731Z,1.48
2023-07-18T22:24:45.489Z,1.58
2023-07-18T22:27:12.208Z,1.45
2023-07-18T22:29:39.156Z,1.52
2023-07-18T22:32:07.355Z,1.98
2023-07-18T22:34:34.900Z,3.83
2023-07-18T22:37:03.225Z,1.33
2023-07-18T22:39:36.487Z,1.38
2023-07-18T22:42:15.339Z,2.42
2023-07-18T22:44:42.647Z,1.25
2023-07-18T22:47:10.162Z,2.78
2023-07-18T22:49:37.212Z,2.72
2023-07-18T22:52:06.719Z,1.52
2023-07-18T22:54:34.695Z,6.82
2023-07-18T22:57:01.836Z,1.75
2023-07-18T22:59:28.662Z,2.63
2023-07-18T23:01:55.402Z,1.52
2023-07-18T23:04:23.704Z,2.13
2023-07-18T23:06:50.372Z,2.55
2023-07-18T23:09:19.695Z,2.88
2023-07-18T23:11:46.808Z,2.75
2023-07-18T23:14:13.706Z,3.38
2023-07-18T23:16:41.773Z,0.70
2023-07-18T23:19:08.526Z,1.63
2023-07-18T23:21:35.628Z,1.58
2023-07-18T23:24:02.710Z,1.58
2023-07-18T23:26:30.913Z,1.55
2023-07-18T23:28:58.042Z,1.55
2023-07-18T23:31:24.998Z,2.72
2023-07-18T23:33:51.952Z,3.38
2023-07-18T23:36:18.669Z,3.08
2023-07-18T23:38:46.525Z,1.77
2023-07-18T23:41:13.404Z,1.95
2023-07-18T23:43:41.444Z,1.75
2023-07-18T23:46:08.374Z,2.35
2023-07-18T23:48:35.998Z,3.38
2023-07-18T23:51:03.221Z,2.78
2023-07-18T23:53:29.901Z,1.63
2023-07-18T23:55:56.792Z,1.98
2023-07-18T23:58:23.732Z,1.77
